Air Navigation Services of Czech Republic
Airport: LKPJ Updated:  07.02.2023 14:30:31  UTC
 METAR LKPJ 07.02. 14:30 ...
METAR LKPJ 071430Z AUTO 06008KT 9999 FEW025/// M02/M07 Q1040=